Wetterdaten: Freitag, 12.06.2015
Datum Zeit Temp. A. Feuchte A. Luftdruck Regen Wind Richtung Richtung Sonnenschein ET UV Solar Taupunkt Windchill Windben Empfang
12.06.2015 00:00 17,4 C 88 % 1013,2 hPa 0,0 l/m 0,3 km/h (0 Bft) O 90 0 min 0,000 mm 0,0 UV-I 0 W/m 15,4 C 17,4 C 4,0 km/h (1 Bft) 0,00 %
12.06.2015 01:00 16,3 C 91 % 1013,1 hPa 0,3 l/m 0,0 km/h (0 Bft) O 90 0 min 0,000 mm 0,0 UV-I 0 W/m 14,8 C 16,3 C 0,0 km/h (0 Bft) 0,00 %
12.06.2015 02:00 15,3 C 94 % 1012,5 hPa 0,3 l/m 0,0 km/h (0 Bft) SO 130 0 min 0,000 mm 0,0 UV-I 0 W/m 14,3 C 15,3 C 0,0 km/h (0 Bft) 0,00 %
12.06.2015 03:00 14,6 C 97 % 1012,6 hPa 0,0 l/m 0,0 km/h (0 Bft) S 180 0 min 0,000 mm 0,0 UV-I 0 W/m 14,1 C 14,6 C 0,0 km/h (0 Bft) 0,00 %
12.06.2015 04:00 13,9 C 97 % 1012,7 hPa 0,0 l/m 0,0 km/h (0 Bft) S-SO 160 0 min 0,000 mm 0,0 UV-I 0 W/m 13,4 C 13,9 C 0,0 km/h (0 Bft) 0,00 %
12.06.2015 05:00 13,4 C 99 % 1012,8 hPa 0,0 l/m 0,0 km/h (0 Bft) S 180 0 min 0,000 mm 0,0 UV-I 0 W/m 13,2 C 13,4 C 0,0 km/h (0 Bft) 0,00 %
12.06.2015 06:00 14,3 C 98 % 1012,2 hPa 0,0 l/m 0,0 km/h (0 Bft) S 180 60 min 0,000 mm 0,0 UV-I 143 W/m 14,0 C 14,3 C 0,0 km/h (0 Bft) 0,00 %
12.06.2015 07:00 18,6 C 74 % 1012,0 hPa 0,0 l/m 0,0 km/h (0 Bft) S-SO 150 60 min 0,000 mm 1,0 UV-I 355 W/m 13,9 C 18,6 C 0,0 km/h (0 Bft) 0,00 %
12.06.2015 08:00 19,1 C 74 % 1012,2 hPa 0,0 l/m 0,0 km/h (0 Bft) N-NO 30 60 min 0,000 mm 2,0 UV-I 455 W/m 14,4 C 19,1 C 0,0 km/h (0 Bft) 0,00 %
12.06.2015 09:00 21,8 C 66 % 1011,5 hPa 0,0 l/m 1,4 km/h (1 Bft) SW 230 60 min 0,000 mm 2,0 UV-I 545 W/m 15,2 C 21,8 C 4,0 km/h (1 Bft) 0,00 %
12.06.2015 10:00 22,6 C 64 % 1011,0 hPa 0,0 l/m 0,0 km/h (0 Bft) S-SO 160 60 min 0,000 mm 3,0 UV-I 635 W/m 15,4 C 22,6 C 0,0 km/h (0 Bft) 0,00 %
12.06.2015 11:00 25,8 C 49 % 1010,5 hPa 0,0 l/m 0,0 km/h (0 Bft) SW 230 60 min 0,000 mm 4,0 UV-I 742 W/m 14,3 C 25,8 C 0,0 km/h (0 Bft) 0,00 %
12.06.2015 12:00 25,9 C 51 % 1010,5 hPa 0,0 l/m 0,3 km/h (0 Bft) SO 130 60 min 0,000 mm 5,0 UV-I 819 W/m 15,0 C 25,9 C 4,0 km/h (1 Bft) 0,00 %
12.06.2015 13:00 27,3 C 45 % 1010,0 hPa 0,0 l/m 0,0 km/h (0 Bft) O-SO 120 60 min 0,000 mm 6,0 UV-I 874 W/m 14,3 C 27,3 C 0,0 km/h (0 Bft) 0,00 %
12.06.2015 14:00 28,0 C 34 % 1009,2 hPa 0,0 l/m 0,6 km/h (0 Bft) NW 320 60 min 0,000 mm 5,0 UV-I 916 W/m 10,7 C 28,0 C 4,0 km/h (1 Bft) 0,00 %
12.06.2015 15:00 29,7 C 39 % 1008,3 hPa 0,0 l/m 5,8 km/h (2 Bft) NO 50 60 min 0,000 mm 4,0 UV-I 906 W/m 14,2 C 29,7 C 7,9 km/h (2 Bft) 0,00 %
12.06.2015 16:00 29,2 C 35 % 1007,9 hPa 0,0 l/m 0,6 km/h (0 Bft) N 359 60 min 0,000 mm 4,0 UV-I 904 W/m 12,1 C 29,2 C 4,0 km/h (1 Bft) 0,00 %
12.06.2015 17:00 28,8 C 36 % 1007,7 hPa 0,0 l/m 0,0 km/h (0 Bft) N-NO 30 60 min 0,000 mm 2,0 UV-I 840 W/m 12,2 C 28,8 C 0,0 km/h (0 Bft) 0,00 %
12.06.2015 18:00 29,3 C 33 % 1006,9 hPa 0,0 l/m 0,0 km/h (0 Bft) N-NO 30 60 min 0,000 mm 1,0 UV-I 726 W/m 11,3 C 29,3 C 0,0 km/h (0 Bft) 0,00 %
12.06.2015 19:00 28,9 C 35 % 1006,2 hPa 0,0 l/m 0,0 km/h (0 Bft) O-SO 120 60 min 0,000 mm 1,0 UV-I 497 W/m 11,9 C 28,9 C 0,0 km/h (0 Bft) 0,00 %
12.06.2015 20:00 28,8 C 41 % 1005,9 hPa 0,0 l/m 0,0 km/h (0 Bft) SO 130 60 min 0,000 mm 0,0 UV-I 201 W/m 14,2 C 28,8 C 0,0 km/h (0 Bft) 0,00 %
12.06.2015 21:00 23,5 C 57 % 1006,7 hPa 0,0 l/m 0,0 km/h (0 Bft) SO 130 0 min 0,000 mm 0,0 UV-I 0 W/m 14,5 C 23,5 C 0,0 km/h (0 Bft) 0,00 %
12.06.2015 22:00 20,9 C 68 % 1007,8 hPa 0,0 l/m 0,0 km/h (0 Bft) SO 130 0 min 0,000 mm 0,0 UV-I 0 W/m 14,8 C 20,9 C 0,0 km/h (0 Bft) 0,00 %
12.06.2015 23:00 19,2 C 73 % 1008,3 hPa 0,0 l/m 0,0 km/h (0 Bft) SO 130 0 min 0,000 mm 0,0 UV-I 0 W/m 14,2 C 19,2 C 0,0 km/h (0 Bft) 0,00 %
_ Min-Zeit 05:00 18:00 20:00 - 01:00 - - - - - - 14:00 05:00 01:00 00:00
Minimum _ 13,4 C 33 % 1005,9 hPa - 0,0 km/h (0 Bft) - - - - - - 10,7 C 13,4 C 0,0 km/h (0 Bft) 0,00 %
_ Max-Zeit 15:00 05:00 00:00 01:00 15:00 - - 06:00 00:00 13:00 14:00 10:00 15:00 15:00 00:00
Maximum _ 29,7 C 99 % 1013,2 hPa 0,3 l/m 5,8 km/h
NO (2 Bft)
- - 60 min 0,000 mm 6,0 UV-I 916 W/m 15,4 C 29,7 C 7,9 km/h
NO (2 Bft)
0,00 %
Durchschnitt _ 22,4 C 63 % 1009,9 hPa #0,6 l/m 0,4 km/h (0 Bft) NO - #15:00 h #0,000 mm 3,1 UV-I 637 W/m 13,8 C 22,4 C 1,0 km/h (0 Bft) 0,00 %